Here is the Quick Look data you requested

The Data originates at the National Weather Service, and is made available here by the UAlbany Department of Atmospheric and Environmental Sciences

Surface Observations

KAFN 230152Z AUTO 33008KT 290V360 10SM CLR M09/M24 A3024 RMK AO2 SLP264
 T10941239=
KASH 230156Z AUTO 31016G27KT 10SM CLR M08/M20 A3029 RMK AO2 PK WND 33029/0113
 SLP268 T10781200=
KBML 230152Z AUTO 31014G23KT 10SM CLR M11/M22 A3018 RMK AO2 SLP247 T11111217=
KCON 230151Z AUTO 32022G28KT 10SM CLR M09/M20 A3027 RMK AO2 PK WND 31032/0118
 SLP257 T10941200=
KCWN 230158Z AUTO 16004KT 10SM SCT220 13/M02 A2991 RMK AO2 SLPNO T01271018=
KDAW 230151Z AUTO 30019G28KT 10SM CLR M09/M21 A3019 RMK AO2 PK WND 32031/0133
 SLP225 T10941206=
KEEN 230156Z AUTO 35006KT 10SM CLR M09/M20 A3032 RMK AO2 SLPNO T10891200 FZRANO=
KHIE 230152Z AUTO 28005KT 10SM FEW044 M13/M22 A3026 RMK AO2 SLP272 T11281217=
KLCI 230156Z AUTO 31009G15KT 260V020 10SM CLR M11/M20 A3026 RMK AO2 PK WND
 28031/0120 SLP268 T11061200 FZRANO=
KLEB 230153Z AUTO 34010KT 10SM CLR M09/M20 A3032 RMK AO2 PK WND 33029/0101
 SLP284 T10941200=
KMHT 230153Z 33021G30KT 10SM CLR M08/M22 A3027 RMK AO2 PK WND 32032/0136 SLP270
 T10831217=
KMWN 230150Z 32068G80KT 1/16SM FZFG BLSN VV000 M26/M26 RMK PK WND 32093/10 VRY
 LGT ICG=
KPSM 230158Z 30014G24KT 10SM CLR M09/M21 A3023 RMK AO2A PK WND 30032/00 SLP244
 T10901208=